sensor_id;sensor_type;location;lat;lon;timestamp;P1;durP1;ratioP1;P2;durP2;ratioP2
43363;SDS011;40636;52.424;-1.948;2023-09-19T00:00:43;2.47;;;1.38;;
43363;SDS011;40636;52.424;-1.948;2023-09-19T00:03:13;5.70;;;2.03;;
43363;SDS011;40636;52.424;-1.948;2023-09-19T00:05:41;6.20;;;1.75;;
43363;SDS011;40636;52.424;-1.948;2023-09-19T00:08:12;4.35;;;1.30;;
43363;SDS011;40636;52.424;-1.948;2023-09-19T00:10:42;3.63;;;0.60;;
43363;SDS011;40636;52.424;-1.948;2023-09-19T00:13:10;9.98;;;2.33;;
43363;SDS011;40636;52.424;-1.948;2023-09-19T00:15:43;1.23;;;0.80;;
43363;SDS011;40636;52.424;-1.948;2023-09-19T00:18:18;8.80;;;1.90;;
43363;SDS011;40636;52.424;-1.948;2023-09-19T00:20:47;3.15;;;0.90;;
43363;SDS011;40636;52.424;-1.948;2023-09-19T00:23:16;8.07;;;1.15;;
43363;SDS011;40636;52.424;-1.948;2023-09-19T00:25:43;0.73;;;0.73;;
43363;SDS011;40636;52.424;-1.948;2023-09-19T00:28:11;1.98;;;0.85;;
43363;SDS011;40636;52.424;-1.948;2023-09-19T00:30:41;6.40;;;1.27;;
43363;SDS011;40636;52.424;-1.948;2023-09-19T00:33:09;6.55;;;1.55;;
43363;SDS011;40636;52.424;-1.948;2023-09-19T00:35:37;6.20;;;1.05;;
43363;SDS011;40636;52.424;-1.948;2023-09-19T00:38:04;4.55;;;1.80;;
43363;SDS011;40636;52.424;-1.948;2023-09-19T00:40:33;5.25;;;1.00;;
43363;SDS011;40636;52.424;-1.948;2023-09-19T00:43:00;2.55;;;1.15;;
43363;SDS011;40636;52.424;-1.948;2023-09-19T00:45:27;1.00;;;0.75;;
43363;SDS011;40636;52.424;-1.948;2023-09-19T00:47:55;8.38;;;2.00;;
43363;SDS011;40636;52.424;-1.948;2023-09-19T00:50:24;8.15;;;2.08;;
43363;SDS011;40636;52.424;-1.948;2023-09-19T00:52:55;4.28;;;0.88;;
43363;SDS011;40636;52.424;-1.948;2023-09-19T00:55:23;5.80;;;2.20;;
43363;SDS011;40636;52.424;-1.948;2023-09-19T00:57:51;8.20;;;1.30;;
43363;SDS011;40636;52.424;-1.948;2023-09-19T01:00:19;9.15;;;2.50;;
43363;SDS011;40636;52.424;-1.948;2023-09-19T01:02:48;9.23;;;2.40;;
43363;SDS011;40636;52.424;-1.948;2023-09-19T01:05:15;4.75;;;2.13;;
43363;SDS011;40636;52.424;-1.948;2023-09-19T01:07:42;0.90;;;0.60;;
43363;SDS011;40636;52.424;-1.948;2023-09-19T01:10:17;9.65;;;2.15;;
43363;SDS011;40636;52.424;-1.948;2023-09-19T01:15:50;9.95;;;2.47;;
43363;SDS011;40636;52.424;-1.948;2023-09-19T01:26:30;3.20;;;0.60;;
43363;SDS011;40636;52.424;-1.948;2023-09-19T01:32:01;8.18;;;2.38;;
43363;SDS011;40636;52.424;-1.948;2023-09-19T01:34:44;0.55;;;0.55;;
43363;SDS011;40636;52.424;-1.948;2023-09-19T01:37:18;1.65;;;1.10;;
43363;SDS011;40636;52.424;-1.948;2023-09-19T01:39:56;4.65;;;0.90;;
43363;SDS011;40636;52.424;-1.948;2023-09-19T01:42:41;9.35;;;2.85;;
43363;SDS011;40636;52.424;-1.948;2023-09-19T01:45:13;7.93;;;2.63;;
43363;SDS011;40636;52.424;-1.948;2023-09-19T01:47:54;1.75;;;0.55;;
43363;SDS011;40636;52.424;-1.948;2023-09-19T01:53:13;2.38;;;0.70;;
43363;SDS011;40636;52.424;-1.948;2023-09-19T01:55:48;5.72;;;2.28;;
43363;SDS011;40636;52.424;-1.948;2023-09-19T02:00:49;0.80;;;0.52;;
43363;SDS011;40636;52.424;-1.948;2023-09-19T02:03:20;3.40;;;0.95;;
43363;SDS011;40636;52.424;-1.948;2023-09-19T02:05:51;1.35;;;1.10;;
43363;SDS011;40636;52.424;-1.948;2023-09-19T02:08:21;5.00;;;1.20;;
43363;SDS011;40636;52.424;-1.948;2023-09-19T02:10:51;1.35;;;0.75;;
43363;SDS011;40636;52.424;-1.948;2023-09-19T02:13:19;13.48;;;0.85;;
43363;SDS011;40636;52.424;-1.948;2023-09-19T02:15:48;8.60;;;2.40;;
43363;SDS011;40636;52.424;-1.948;2023-09-19T02:18:15;5.75;;;1.25;;
43363;SDS011;40636;52.424;-1.948;2023-09-19T02:20:43;2.40;;;0.77;;
43363;SDS011;40636;52.424;-1.948;2023-09-19T02:23:10;2.90;;;0.88;;
43363;SDS011;40636;52.424;-1.948;2023-09-19T02:25:37;7.82;;;1.80;;
43363;SDS011;40636;52.424;-1.948;2023-09-19T02:28:05;11.60;;;2.53;;
43363;SDS011;40636;52.424;-1.948;2023-09-19T02:30:33;8.27;;;2.80;;
43363;SDS011;40636;52.424;-1.948;2023-09-19T02:33:00;2.38;;;1.00;;
43363;SDS011;40636;52.424;-1.948;2023-09-19T02:35:30;3.53;;;0.95;;
43363;SDS011;40636;52.424;-1.948;2023-09-19T02:38:01;6.93;;;1.95;;
43363;SDS011;40636;52.424;-1.948;2023-09-19T02:40:33;8.50;;;2.28;;
43363;SDS011;40636;52.424;-1.948;2023-09-19T02:43:03;0.90;;;0.85;;
43363;SDS011;40636;52.424;-1.948;2023-09-19T02:45:31;8.55;;;1.15;;
43363;SDS011;40636;52.424;-1.948;2023-09-19T02:47:58;2.22;;;1.08;;
43363;SDS011;40636;52.424;-1.948;2023-09-19T02:50:25;4.15;;;1.33;;
43363;SDS011;40636;52.424;-1.948;2023-09-19T02:52:52;2.80;;;1.05;;
43363;SDS011;40636;52.424;-1.948;2023-09-19T02:55:19;1.05;;;0.65;;
43363;SDS011;40636;52.424;-1.948;2023-09-19T02:57:49;4.68;;;1.30;;
43363;SDS011;40636;52.424;-1.948;2023-09-19T03:00:17;1.50;;;0.95;;
43363;SDS011;40636;52.424;-1.948;2023-09-19T03:02:50;9.48;;;2.55;;
43363;SDS011;40636;52.424;-1.948;2023-09-19T03:05:19;1.58;;;1.48;;
43363;SDS011;40636;52.424;-1.948;2023-09-19T03:07:47;2.38;;;0.65;;
43363;SDS011;40636;52.424;-1.948;2023-09-19T03:10:17;12.77;;;5.18;;
43363;SDS011;40636;52.424;-1.948;2023-09-19T03:12:46;11.10;;;5.80;;
43363;SDS011;40636;52.424;-1.948;2023-09-19T03:15:16;18.05;;;4.10;;
43363;SDS011;40636;52.424;-1.948;2023-09-19T03:17:45;4.95;;;2.28;;
43363;SDS011;40636;52.424;-1.948;2023-09-19T03:20:14;5.22;;;1.20;;
43363;SDS011;40636;52.424;-1.948;2023-09-19T03:22:44;10.82;;;1.85;;
43363;SDS011;40636;52.424;-1.948;2023-09-19T03:25:12;5.32;;;1.48;;
43363;SDS011;40636;52.424;-1.948;2023-09-19T03:27:39;9.70;;;3.70;;
43363;SDS011;40636;52.424;-1.948;2023-09-19T03:30:06;11.20;;;2.50;;
43363;SDS011;40636;52.424;-1.948;2023-09-19T03:32:46;7.75;;;2.13;;
43363;SDS011;40636;52.424;-1.948;2023-09-19T03:37:44;13.00;;;4.28;;
43363;SDS011;40636;52.424;-1.948;2023-09-19T03:40:11;1.50;;;1.08;;
43363;SDS011;40636;52.424;-1.948;2023-09-19T03:42:38;11.23;;;3.70;;
43363;SDS011;40636;52.424;-1.948;2023-09-19T03:45:09;7.50;;;1.17;;
43363;SDS011;40636;52.424;-1.948;2023-09-19T03:47:39;9.88;;;4.30;;
43363;SDS011;40636;52.424;-1.948;2023-09-19T03:50:07;3.53;;;1.90;;
43363;SDS011;40636;52.424;-1.948;2023-09-19T03:52:34;9.32;;;2.35;;
43363;SDS011;40636;52.424;-1.948;2023-09-19T03:55:01;8.20;;;3.88;;
43363;SDS011;40636;52.424;-1.948;2023-09-19T03:57:31;6.60;;;3.65;;
43363;SDS011;40636;52.424;-1.948;2023-09-19T03:59:58;5.70;;;2.92;;
43363;SDS011;40636;52.424;-1.948;2023-09-19T04:02:25;17.63;;;4.75;;
43363;SDS011;40636;52.424;-1.948;2023-09-19T04:04:52;10.20;;;3.30;;
43363;SDS011;40636;52.424;-1.948;2023-09-19T04:07:19;4.82;;;1.48;;
43363;SDS011;40636;52.424;-1.948;2023-09-19T04:09:49;6.18;;;1.75;;
43363;SDS011;40636;52.424;-1.948;2023-09-19T04:12:16;3.40;;;1.08;;
43363;SDS011;40636;52.424;-1.948;2023-09-19T04:14:45;5.78;;;1.55;;
43363;SDS011;40636;52.424;-1.948;2023-09-19T04:17:12;8.73;;;2.70;;
43363;SDS011;40636;52.424;-1.948;2023-09-19T04:19:39;5.25;;;0.85;;
43363;SDS011;40636;52.424;-1.948;2023-09-19T04:22:07;6.45;;;0.82;;
43363;SDS011;40636;52.424;-1.948;2023-09-19T04:24:35;8.15;;;2.38;;
43363;SDS011;40636;52.424;-1.948;2023-09-19T04:27:02;9.75;;;2.28;;
43363;SDS011;40636;52.424;-1.948;2023-09-19T04:29:29;3.55;;;1.02;;
43363;SDS011;40636;52.424;-1.948;2023-09-19T04:31:56;8.25;;;2.65;;
43363;SDS011;40636;52.424;-1.948;2023-09-19T04:34:26;11.85;;;2.92;;
43363;SDS011;40636;52.424;-1.948;2023-09-19T04:36:53;7.82;;;1.83;;
43363;SDS011;40636;52.424;-1.948;2023-09-19T04:39:20;5.68;;;1.40;;
43363;SDS011;40636;52.424;-1.948;2023-09-19T04:41:47;4.80;;;1.70;;
43363;SDS011;40636;52.424;-1.948;2023-09-19T04:44:14;3.38;;;1.65;;
43363;SDS011;40636;52.424;-1.948;2023-09-19T04:46:42;11.75;;;2.92;;
43363;SDS011;40636;52.424;-1.948;2023-09-19T04:49:09;11.10;;;1.00;;
43363;SDS011;40636;52.424;-1.948;2023-09-19T04:51:36;3.60;;;0.98;;
43363;SDS011;40636;52.424;-1.948;2023-09-19T04:54:03;2.28;;;0.90;;
43363;SDS011;40636;52.424;-1.948;2023-09-19T04:56:30;9.40;;;2.17;;
43363;SDS011;40636;52.424;-1.948;2023-09-19T04:58:58;9.65;;;3.03;;
43363;SDS011;40636;52.424;-1.948;2023-09-19T05:01:26;10.52;;;2.85;;
43363;SDS011;40636;52.424;-1.948;2023-09-19T05:03:53;6.45;;;0.75;;
43363;SDS011;40636;52.424;-1.948;2023-09-19T05:06:20;5.50;;;0.93;;
43363;SDS011;40636;52.424;-1.948;2023-09-19T05:08:50;6.72;;;1.23;;
43363;SDS011;40636;52.424;-1.948;2023-09-19T05:11:21;3.53;;;0.73;;
43363;SDS011;40636;52.424;-1.948;2023-09-19T05:13:49;3.08;;;0.80;;
43363;SDS011;40636;52.424;-1.948;2023-09-19T05:16:28;8.68;;;2.38;;
43363;SDS011;40636;52.424;-1.948;2023-09-19T05:18:56;3.35;;;1.23;;
43363;SDS011;40636;52.424;-1.948;2023-09-19T05:21:23;7.32;;;2.30;;
43363;SDS011;40636;52.424;-1.948;2023-09-19T05:23:51;8.10;;;2.95;;
43363;SDS011;40636;52.424;-1.948;2023-09-19T05:26:18;1.23;;;0.88;;
43363;SDS011;40636;52.424;-1.948;2023-09-19T05:28:46;1.02;;;0.77;;
43363;SDS011;40636;52.424;-1.948;2023-09-19T05:31:14;7.03;;;2.60;;
43363;SDS011;40636;52.424;-1.948;2023-09-19T05:33:42;9.90;;;2.75;;
43363;SDS011;40636;52.424;-1.948;2023-09-19T05:36:09;13.13;;;3.35;;
43363;SDS011;40636;52.424;-1.948;2023-09-19T05:38:38;1.67;;;1.15;;
43363;SDS011;40636;52.424;-1.948;2023-09-19T05:41:08;9.27;;;2.25;;
43363;SDS011;40636;52.424;-1.948;2023-09-19T05:43:37;3.75;;;1.15;;
43363;SDS011;40636;52.424;-1.948;2023-09-19T05:46:04;9.43;;;2.65;;
43363;SDS011;40636;52.424;-1.948;2023-09-19T05:48:31;9.35;;;2.95;;
43363;SDS011;40636;52.424;-1.948;2023-09-19T05:50:59;7.05;;;2.28;;
43363;SDS011;40636;52.424;-1.948;2023-09-19T05:53:27;10.93;;;3.17;;
43363;SDS011;40636;52.424;-1.948;2023-09-19T05:55:55;7.53;;;2.85;;
43363;SDS011;40636;52.424;-1.948;2023-09-19T05:58:22;7.13;;;3.00;;
43363;SDS011;40636;52.424;-1.948;2023-09-19T06:00:49;3.30;;;1.25;;
43363;SDS011;40636;52.424;-1.948;2023-09-19T06:03:16;2.90;;;0.88;;
43363;SDS011;40636;52.424;-1.948;2023-09-19T06:05:45;8.52;;;1.38;;
43363;SDS011;40636;52.424;-1.948;2023-09-19T06:08:16;3.03;;;1.17;;
43363;SDS011;40636;52.424;-1.948;2023-09-19T06:10:43;3.30;;;1.10;;
43363;SDS011;40636;52.424;-1.948;2023-09-19T06:13:09;9.32;;;2.20;;
43363;SDS011;40636;52.424;-1.948;2023-09-19T06:15:37;1.45;;;0.85;;
43363;SDS011;40636;52.424;-1.948;2023-09-19T06:18:03;10.98;;;0.93;;
43363;SDS011;40636;52.424;-1.948;2023-09-19T06:20:31;5.43;;;2.05;;
43363;SDS011;40636;52.424;-1.948;2023-09-19T06:23:00;7.43;;;1.08;;
43363;SDS011;40636;52.424;-1.948;2023-09-19T06:25:28;5.03;;;1.13;;
43363;SDS011;40636;52.424;-1.948;2023-09-19T06:27:55;3.67;;;1.40;;
43363;SDS011;40636;52.424;-1.948;2023-09-19T06:30:24;1.98;;;1.30;;
43363;SDS011;40636;52.424;-1.948;2023-09-19T06:32:56;7.43;;;1.38;;
43363;SDS011;40636;52.424;-1.948;2023-09-19T06:35:24;9.32;;;2.72;;
43363;SDS011;40636;52.424;-1.948;2023-09-19T06:37:52;14.05;;;3.25;;
43363;SDS011;40636;52.424;-1.948;2023-09-19T06:40:19;9.93;;;3.30;;
43363;SDS011;40636;52.424;-1.948;2023-09-19T06:42:49;7.45;;;1.90;;
43363;SDS011;40636;52.424;-1.948;2023-09-19T06:45:17;7.93;;;2.85;;
43363;SDS011;40636;52.424;-1.948;2023-09-19T06:47:45;3.92;;;2.10;;
43363;SDS011;40636;52.424;-1.948;2023-09-19T06:50:20;8.48;;;3.22;;
43363;SDS011;40636;52.424;-1.948;2023-09-19T06:52:52;4.78;;;1.42;;
43363;SDS011;40636;52.424;-1.948;2023-09-19T06:55:21;13.00;;;3.60;;
43363;SDS011;40636;52.424;-1.948;2023-09-19T06:57:52;7.85;;;2.83;;
43363;SDS011;40636;52.424;-1.948;2023-09-19T07:00:20;7.82;;;2.83;;
43363;SDS011;40636;52.424;-1.948;2023-09-19T07:02:57;6.57;;;2.88;;
43363;SDS011;40636;52.424;-1.948;2023-09-19T07:05:39;7.35;;;2.83;;
43363;SDS011;40636;52.424;-1.948;2023-09-19T07:08:06;4.88;;;1.55;;
43363;SDS011;40636;52.424;-1.948;2023-09-19T07:10:34;10.80;;;3.10;;
43363;SDS011;40636;52.424;-1.948;2023-09-19T07:15:29;9.27;;;1.45;;
43363;SDS011;40636;52.424;-1.948;2023-09-19T07:18:00;9.57;;;3.03;;
43363;SDS011;40636;52.424;-1.948;2023-09-19T07:20:27;6.22;;;3.00;;
43363;SDS011;40636;52.424;-1.948;2023-09-19T07:22:58;2.60;;;1.35;;
43363;SDS011;40636;52.424;-1.948;2023-09-19T07:25:27;8.85;;;3.00;;
43363;SDS011;40636;52.424;-1.948;2023-09-19T07:27:55;8.82;;;3.00;;
43363;SDS011;40636;52.424;-1.948;2023-09-19T07:30:22;7.55;;;2.83;;
43363;SDS011;40636;52.424;-1.948;2023-09-19T07:32:50;17.65;;;5.07;;
43363;SDS011;40636;52.424;-1.948;2023-09-19T07:35:16;9.85;;;2.70;;
43363;SDS011;40636;52.424;-1.948;2023-09-19T07:37:45;9.43;;;2.90;;
43363;SDS011;40636;52.424;-1.948;2023-09-19T07:40:16;9.65;;;3.25;;
43363;SDS011;40636;52.424;-1.948;2023-09-19T07:42:43;8.43;;;3.00;;
43363;SDS011;40636;52.424;-1.948;2023-09-19T07:45:13;3.08;;;1.25;;
43363;SDS011;40636;52.424;-1.948;2023-09-19T07:47:47;2.25;;;1.42;;
43363;SDS011;40636;52.424;-1.948;2023-09-19T07:50:19;6.88;;;2.88;;
43363;SDS011;40636;52.424;-1.948;2023-09-19T07:52:46;8.95;;;3.08;;
43363;SDS011;40636;52.424;-1.948;2023-09-19T07:55:14;4.45;;;1.63;;
43363;SDS011;40636;52.424;-1.948;2023-09-19T07:57:46;9.70;;;2.97;;
43363;SDS011;40636;52.424;-1.948;2023-09-19T08:00:13;6.22;;;2.85;;
43363;SDS011;40636;52.424;-1.948;2023-09-19T08:02:40;6.60;;;2.90;;
43363;SDS011;40636;52.424;-1.948;2023-09-19T08:05:11;8.23;;;3.25;;
43363;SDS011;40636;52.424;-1.948;2023-09-19T08:07:42;6.40;;;2.67;;
43363;SDS011;40636;52.424;-1.948;2023-09-19T08:10:19;7.65;;;2.90;;
43363;SDS011;40636;52.424;-1.948;2023-09-19T08:12:48;6.85;;;2.55;;
43363;SDS011;40636;52.424;-1.948;2023-09-19T08:15:19;5.40;;;3.33;;
43363;SDS011;40636;52.424;-1.948;2023-09-19T08:17:47;3.65;;;1.33;;
43363;SDS011;40636;52.424;-1.948;2023-09-19T08:20:15;5.25;;;2.03;;
43363;SDS011;40636;52.424;-1.948;2023-09-19T08:22:47;5.78;;;3.00;;
43363;SDS011;40636;52.424;-1.948;2023-09-19T08:25:16;4.75;;;1.48;;
43363;SDS011;40636;52.424;-1.948;2023-09-19T08:27:46;7.45;;;2.25;;
43363;SDS011;40636;52.424;-1.948;2023-09-19T08:30:19;10.65;;;3.45;;
43363;SDS011;40636;52.424;-1.948;2023-09-19T08:32:57;5.53;;;2.38;;
43363;SDS011;40636;52.424;-1.948;2023-09-19T08:35:26;8.15;;;2.45;;
43363;SDS011;40636;52.424;-1.948;2023-09-19T08:37:53;6.97;;;2.00;;
43363;SDS011;40636;52.424;-1.948;2023-09-19T08:40:22;6.90;;;2.55;;
43363;SDS011;40636;52.424;-1.948;2023-09-19T08:42:50;6.97;;;2.42;;
43363;SDS011;40636;52.424;-1.948;2023-09-19T08:45:17;4.68;;;2.28;;
43363;SDS011;40636;52.424;-1.948;2023-09-19T08:48:03;3.58;;;1.95;;
43363;SDS011;40636;52.424;-1.948;2023-09-19T08:50:33;4.13;;;2.20;;
43363;SDS011;40636;52.424;-1.948;2023-09-19T08:53:20;7.30;;;2.70;;
43363;SDS011;40636;52.424;-1.948;2023-09-19T08:55:53;8.15;;;2.58;;
43363;SDS011;40636;52.424;-1.948;2023-09-19T08:58:27;4.88;;;2.35;;
43363;SDS011;40636;52.424;-1.948;2023-09-19T09:01:01;5.57;;;2.25;;
43363;SDS011;40636;52.424;-1.948;2023-09-19T09:03:32;4.90;;;2.05;;
43363;SDS011;40636;52.424;-1.948;2023-09-19T09:06:00;7.78;;;1.95;;
43363;SDS011;40636;52.424;-1.948;2023-09-19T09:08:28;4.68;;;2.13;;
43363;SDS011;40636;52.424;-1.948;2023-09-19T09:10:57;3.97;;;1.50;;
43363;SDS011;40636;52.424;-1.948;2023-09-19T09:13:25;2.67;;;1.50;;
43363;SDS011;40636;52.424;-1.948;2023-09-19T09:15:53;5.60;;;2.03;;
43363;SDS011;40636;52.424;-1.948;2023-09-19T09:18:21;4.43;;;2.00;;
43363;SDS011;40636;52.424;-1.948;2023-09-19T09:20:49;3.28;;;1.55;;
43363;SDS011;40636;52.424;-1.948;2023-09-19T09:23:16;6.30;;;1.80;;
43363;SDS011;40636;52.424;-1.948;2023-09-19T09:25:52;3.08;;;1.73;;
43363;SDS011;40636;52.424;-1.948;2023-09-19T09:28:26;3.83;;;1.63;;
43363;SDS011;40636;52.424;-1.948;2023-09-19T09:30:57;4.05;;;1.42;;
43363;SDS011;40636;52.424;-1.948;2023-09-19T09:33:25;4.45;;;1.42;;
43363;SDS011;40636;52.424;-1.948;2023-09-19T09:38:25;3.72;;;1.30;;
43363;SDS011;40636;52.424;-1.948;2023-09-19T09:40:54;6.35;;;1.30;;
43363;SDS011;40636;52.424;-1.948;2023-09-19T09:43:34;3.78;;;1.58;;
43363;SDS011;40636;52.424;-1.948;2023-09-19T09:51:40;2.58;;;1.23;;
43363;SDS011;40636;52.424;-1.948;2023-09-19T09:54:10;1.33;;;0.85;;
43363;SDS011;40636;52.424;-1.948;2023-09-19T09:56:52;4.40;;;1.00;;
43363;SDS011;40636;52.424;-1.948;2023-09-19T10:02:38;3.03;;;1.00;;
43363;SDS011;40636;52.424;-1.948;2023-09-19T10:05:13;2.50;;;0.93;;
43363;SDS011;40636;52.424;-1.948;2023-09-19T10:07:55;5.65;;;1.33;;
43363;SDS011;40636;52.424;-1.948;2023-09-19T10:10:36;2.50;;;0.95;;
43363;SDS011;40636;52.424;-1.948;2023-09-19T10:13:14;2.75;;;1.10;;
43363;SDS011;40636;52.424;-1.948;2023-09-19T10:15:46;2.63;;;1.27;;
43363;SDS011;40636;52.424;-1.948;2023-09-19T10:18:19;1.83;;;0.80;;
43363;SDS011;40636;52.424;-1.948;2023-09-19T10:20:51;1.98;;;0.80;;
43363;SDS011;40636;52.424;-1.948;2023-09-19T10:23:19;2.60;;;1.73;;
43363;SDS011;40636;52.424;-1.948;2023-09-19T10:25:50;1.67;;;0.80;;
43363;SDS011;40636;52.424;-1.948;2023-09-19T10:28:20;2.05;;;1.00;;
43363;SDS011;40636;52.424;-1.948;2023-09-19T10:30:51;2.55;;;1.05;;
43363;SDS011;40636;52.424;-1.948;2023-09-19T10:33:20;1.77;;;0.80;;
43363;SDS011;40636;52.424;-1.948;2023-09-19T10:35:49;1.67;;;0.70;;
43363;SDS011;40636;52.424;-1.948;2023-09-19T10:38:18;1.77;;;0.98;;
43363;SDS011;40636;52.424;-1.948;2023-09-19T10:40:49;3.08;;;0.90;;
43363;SDS011;40636;52.424;-1.948;2023-09-19T10:43:19;1.48;;;0.70;;
43363;SDS011;40636;52.424;-1.948;2023-09-19T10:45:48;1.50;;;0.57;;
43363;SDS011;40636;52.424;-1.948;2023-09-19T10:48:19;2.13;;;0.95;;
43363;SDS011;40636;52.424;-1.948;2023-09-19T10:51:06;1.65;;;0.95;;
43363;SDS011;40636;52.424;-1.948;2023-09-19T10:53:44;1.88;;;0.60;;
43363;SDS011;40636;52.424;-1.948;2023-09-19T10:56:18;1.92;;;0.77;;
43363;SDS011;40636;52.424;-1.948;2023-09-19T10:59:14;2.15;;;1.02;;
43363;SDS011;40636;52.424;-1.948;2023-09-19T11:04:29;2.42;;;0.75;;
43363;SDS011;40636;52.424;-1.948;2023-09-19T11:07:04;1.85;;;0.75;;
43363;SDS011;40636;52.424;-1.948;2023-09-19T11:09:44;3.08;;;0.80;;
43363;SDS011;40636;52.424;-1.948;2023-09-19T11:12:36;1.45;;;0.90;;
43363;SDS011;40636;52.424;-1.948;2023-09-19T11:15:07;1.80;;;0.80;;
43363;SDS011;40636;52.424;-1.948;2023-09-19T11:17:35;1.67;;;0.75;;
43363;SDS011;40636;52.424;-1.948;2023-09-19T11:30:42;0.47;;;0.47;;
43363;SDS011;40636;52.424;-1.948;2023-09-19T11:33:21;2.17;;;0.63;;
43363;SDS011;40636;52.424;-1.948;2023-09-19T11:43:48;2.22;;;0.75;;
43363;SDS011;40636;52.424;-1.948;2023-09-19T11:46:20;1.23;;;0.63;;
43363;SDS011;40636;52.424;-1.948;2023-09-19T11:48:48;0.57;;;0.52;;
43363;SDS011;40636;52.424;-1.948;2023-09-19T11:51:20;3.05;;;1.02;;
43363;SDS011;40636;52.424;-1.948;2023-09-19T11:53:57;3.00;;;0.73;;
43363;SDS011;40636;52.424;-1.948;2023-09-19T11:56:28;2.97;;;1.35;;
43363;SDS011;40636;52.424;-1.948;2023-09-19T11:58:56;3.55;;;0.63;;
43363;SDS011;40636;52.424;-1.948;2023-09-19T12:01:25;2.30;;;1.23;;
43363;SDS011;40636;52.424;-1.948;2023-09-19T12:04:02;1.52;;;0.52;;
43363;SDS011;40636;52.424;-1.948;2023-09-19T12:06:31;1.02;;;0.55;;
43363;SDS011;40636;52.424;-1.948;2023-09-19T12:09:02;0.73;;;0.55;;
43363;SDS011;40636;52.424;-1.948;2023-09-19T12:11:33;1.58;;;0.52;;
43363;SDS011;40636;52.424;-1.948;2023-09-19T12:14:09;1.30;;;0.50;;
43363;SDS011;40636;52.424;-1.948;2023-09-19T12:16:36;0.75;;;0.52;;
43363;SDS011;40636;52.424;-1.948;2023-09-19T12:19:20;1.73;;;0.50;;
43363;SDS011;40636;52.424;-1.948;2023-09-19T12:21:56;0.80;;;0.38;;
43363;SDS011;40636;52.424;-1.948;2023-09-19T12:24:31;1.17;;;0.50;;
43363;SDS011;40636;52.424;-1.948;2023-09-19T12:27:02;0.38;;;0.38;;
43363;SDS011;40636;52.424;-1.948;2023-09-19T12:29:32;1.30;;;0.60;;
43363;SDS011;40636;52.424;-1.948;2023-09-19T12:32:11;1.02;;;0.50;;
43363;SDS011;40636;52.424;-1.948;2023-09-19T12:34:39;0.73;;;0.47;;
43363;SDS011;40636;52.424;-1.948;2023-09-19T12:37:10;0.63;;;0.40;;
43363;SDS011;40636;52.424;-1.948;2023-09-19T12:39:39;0.52;;;0.50;;
43363;SDS011;40636;52.424;-1.948;2023-09-19T12:42:15;1.27;;;0.63;;
43363;SDS011;40636;52.424;-1.948;2023-09-19T12:44:44;2.63;;;0.60;;
43363;SDS011;40636;52.424;-1.948;2023-09-19T12:47:14;0.98;;;0.50;;
43363;SDS011;40636;52.424;-1.948;2023-09-19T12:52:42;0.75;;;0.63;;
43363;SDS011;40636;52.424;-1.948;2023-09-19T12:55:23;0.80;;;0.80;;
43363;SDS011;40636;52.424;-1.948;2023-09-19T12:58:02;1.70;;;0.38;;
43363;SDS011;40636;52.424;-1.948;2023-09-19T13:05:56;0.68;;;0.52;;
43363;SDS011;40636;52.424;-1.948;2023-09-19T13:08:28;3.53;;;0.77;;
43363;SDS011;40636;52.424;-1.948;2023-09-19T13:11:10;1.42;;;0.70;;
43363;SDS011;40636;52.424;-1.948;2023-09-19T13:13:40;1.40;;;0.80;;
43363;SDS011;40636;52.424;-1.948;2023-09-19T13:16:16;2.08;;;0.70;;
43363;SDS011;40636;52.424;-1.948;2023-09-19T13:18:51;1.48;;;0.80;;
43363;SDS011;40636;52.424;-1.948;2023-09-19T13:21:31;0.85;;;0.65;;
43363;SDS011;40636;52.424;-1.948;2023-09-19T13:24:24;2.00;;;1.10;;
43363;SDS011;40636;52.424;-1.948;2023-09-19T13:26:54;1.50;;;0.60;;
43363;SDS011;40636;52.424;-1.948;2023-09-19T13:29:22;2.08;;;0.85;;
43363;SDS011;40636;52.424;-1.948;2023-09-19T13:31:52;1.70;;;0.75;;
43363;SDS011;40636;52.424;-1.948;2023-09-19T13:34:21;1.52;;;0.80;;
43363;SDS011;40636;52.424;-1.948;2023-09-19T13:36:48;2.35;;;0.73;;
43363;SDS011;40636;52.424;-1.948;2023-09-19T13:39:16;2.25;;;1.20;;
43363;SDS011;40636;52.424;-1.948;2023-09-19T13:41:47;1.60;;;1.00;;
43363;SDS011;40636;52.424;-1.948;2023-09-19T13:44:14;3.25;;;1.00;;
43363;SDS011;40636;52.424;-1.948;2023-09-19T13:46:43;5.40;;;1.10;;
43363;SDS011;40636;52.424;-1.948;2023-09-19T13:49:13;4.20;;;1.60;;
43363;SDS011;40636;52.424;-1.948;2023-09-19T13:51:40;6.45;;;1.45;;
43363;SDS011;40636;52.424;-1.948;2023-09-19T13:54:11;6.68;;;1.40;;
43363;SDS011;40636;52.424;-1.948;2023-09-19T13:56:39;5.97;;;1.45;;
43363;SDS011;40636;52.424;-1.948;2023-09-19T13:59:06;3.33;;;1.60;;
43363;SDS011;40636;52.424;-1.948;2023-09-19T14:01:33;10.95;;;2.22;;
43363;SDS011;40636;52.424;-1.948;2023-09-19T14:04:00;5.50;;;2.15;;
43363;SDS011;40636;52.424;-1.948;2023-09-19T14:06:28;8.65;;;2.63;;
43363;SDS011;40636;52.424;-1.948;2023-09-19T14:08:54;10.10;;;2.25;;
43363;SDS011;40636;52.424;-1.948;2023-09-19T14:11:21;6.80;;;2.45;;
43363;SDS011;40636;52.424;-1.948;2023-09-19T14:13:48;5.68;;;1.77;;
43363;SDS011;40636;52.424;-1.948;2023-09-19T14:16:16;9.57;;;2.42;;
43363;SDS011;40636;52.424;-1.948;2023-09-19T14:18:45;12.15;;;2.70;;
43363;SDS011;40636;52.424;-1.948;2023-09-19T14:21:13;8.65;;;3.10;;
43363;SDS011;40636;52.424;-1.948;2023-09-19T14:23:41;9.85;;;3.35;;
43363;SDS011;40636;52.424;-1.948;2023-09-19T14:26:09;8.00;;;2.85;;
43363;SDS011;40636;52.424;-1.948;2023-09-19T14:28:37;9.20;;;2.78;;
43363;SDS011;40636;52.424;-1.948;2023-09-19T14:31:06;7.53;;;3.05;;
43363;SDS011;40636;52.424;-1.948;2023-09-19T14:33:37;8.95;;;3.63;;
43363;SDS011;40636;52.424;-1.948;2023-09-19T14:36:06;11.05;;;3.38;;
43363;SDS011;40636;52.424;-1.948;2023-09-19T14:38:35;7.70;;;3.08;;
43363;SDS011;40636;52.424;-1.948;2023-09-19T14:41:03;11.75;;;3.95;;
43363;SDS011;40636;52.424;-1.948;2023-09-19T14:43:31;12.05;;;3.53;;
43363;SDS011;40636;52.424;-1.948;2023-09-19T14:46:05;14.02;;;4.13;;
43363;SDS011;40636;52.424;-1.948;2023-09-19T14:48:36;13.52;;;3.20;;
43363;SDS011;40636;52.424;-1.948;2023-09-19T14:51:05;8.82;;;3.42;;
43363;SDS011;40636;52.424;-1.948;2023-09-19T14:53:35;7.55;;;3.45;;
43363;SDS011;40636;52.424;-1.948;2023-09-19T14:56:07;13.93;;;3.05;;
43363;SDS011;40636;52.424;-1.948;2023-09-19T14:58:34;14.65;;;3.95;;
43363;SDS011;40636;52.424;-1.948;2023-09-19T15:01:12;16.02;;;4.32;;
43363;SDS011;40636;52.424;-1.948;2023-09-19T15:03:40;9.10;;;3.17;;
43363;SDS011;40636;52.424;-1.948;2023-09-19T15:06:10;11.05;;;3.08;;
43363;SDS011;40636;52.424;-1.948;2023-09-19T15:08:46;9.10;;;3.88;;
43363;SDS011;40636;52.424;-1.948;2023-09-19T15:11:15;12.68;;;2.85;;
43363;SDS011;40636;52.424;-1.948;2023-09-19T15:13:47;9.85;;;2.50;;
43363;SDS011;40636;52.424;-1.948;2023-09-19T15:16:17;11.25;;;2.90;;
43363;SDS011;40636;52.424;-1.948;2023-09-19T15:18:44;6.85;;;2.30;;
43363;SDS011;40636;52.424;-1.948;2023-09-19T15:21:14;9.40;;;2.83;;
43363;SDS011;40636;52.424;-1.948;2023-09-19T15:23:41;6.88;;;2.03;;
43363;SDS011;40636;52.424;-1.948;2023-09-19T15:26:12;7.63;;;2.38;;
43363;SDS011;40636;52.424;-1.948;2023-09-19T15:28:40;7.15;;;2.13;;
43363;SDS011;40636;52.424;-1.948;2023-09-19T15:31:09;4.35;;;1.83;;
43363;SDS011;40636;52.424;-1.948;2023-09-19T15:33:38;7.53;;;1.95;;
43363;SDS011;40636;52.424;-1.948;2023-09-19T15:36:14;8.95;;;2.47;;
43363;SDS011;40636;52.424;-1.948;2023-09-19T15:39:16;7.78;;;2.60;;
43363;SDS011;40636;52.424;-1.948;2023-09-19T15:41:40;11.50;;;3.00;;
43363;SDS011;40636;52.424;-1.948;2023-09-19T15:44:11;12.35;;;3.17;;
43363;SDS011;40636;52.424;-1.948;2023-09-19T15:46:40;10.35;;;3.05;;
43363;SDS011;40636;52.424;-1.948;2023-09-19T15:49:08;11.10;;;2.53;;
43363;SDS011;40636;52.424;-1.948;2023-09-19T15:51:35;8.98;;;2.65;;
43363;SDS011;40636;52.424;-1.948;2023-09-19T15:54:06;7.80;;;2.42;;
43363;SDS011;40636;52.424;-1.948;2023-09-19T15:56:35;5.57;;;1.75;;